This is the latest recevied weather packets stored in our database for station/object IV3CLI-10. If no packets are shown the sender has not sent any weather packets the latest 10 day(s).
| Time | Temp. | Humidity | Pressure | Rain* | Wind** | Luminosity | Snow |
|---|---|---|---|---|---|---|---|
| 1777296203 | 25.56° C | 51% | 1016.9 hPa | - | - | - | - |
| 1777295302 | 25.56° C | 53% | 1017 hPa | - | - | - | - |
| 1777294402 | 26.11° C | 52% | 1017.1 hPa | - | - | - | - |
| 1777293936 | 26.11° C | 55% | 1017.2 hPa | - | - | - | - |
| 1777293076 | 26.11° C | 54% | 1017.4 hPa | - | - | - | - |
| 1777293034 | 26.11° C | 54% | 1017.4 hPa | - | - | - | - |
| 1777292253 | 26.11° C | 52% | 1017.5 hPa | - | - | - | - |
| 1777291342 | 25.56° C | 54% | 1017.7 hPa | - | - | - | - |
| 1777289525 | 26.67° C | 49% | 1017.7 hPa | - | - | - | - |
| 1777285880 | 25.56° C | 47% | 1018.1 hPa | - | - | - | - |
| 1777284060 | 23.89° C | 49% | 1018.3 hPa | - | - | - | - |
| 1777282240 | 23.33° C | 52% | 1018.7 hPa | - | - | - | - |
| 1777281525 | 23.33° C | 52% | 1018.7 hPa | - | - | - | - |
| 1777280447 | 22.22° C | 53% | 1018.9 hPa | - | - | - | - |
| 1777279536 | 22.22° C | 53% | 1019.1 hPa | - | - | - | - |
| 1777278636 | 21.67° C | 55% | 1019.2 hPa | - | - | - | - |
| 1777277735 | 22.22° C | 55% | 1019.2 hPa | - | - | - | - |
| 1777276836 | 21.67° C | 56% | 1019.2 hPa | - | - | - | - |
| 1777275934 | 21.11° C | 58% | 1019.1 hPa | - | - | - | - |
| 1777275034 | 20.56° C | 59% | 1019.1 hPa | - | - | - | - |
| 1777274134 | 19.44° C | 65% | 1019.2 hPa | - | - | - | - |
| 1777273234 | 18.89° C | 66% | 1019.1 hPa | - | - | - | - |
| 1777272334 | 18.89° C | 70% | 1019.2 hPa | - | - | - | - |
| 1777271434 | 18.89° C | 70% | 1019.3 hPa | - | - | - | - |
| 1777270534 | 18.33° C | 76% | 1019.4 hPa | - | - | - | - |
* Rain since midnight (hover to see other rain measurements)
** Current wind speed in m/s (hover to see current wind gust speed)